Time;durP1;ratioP1;P1;durP2;ratioP2;P2;SDS_P1;SDS_P2;PMS_P1;PMS_P2;Temp;Humidity;BMP_temperature;BMP_pressure;BME280_temperature;BME280_humidity;BME280_pressure;Samples;Min_cycle;Max_cycle;Signal;HPM_P1;HPM_P2
2021/07/08 00:01:49;;;;;;;;;;;;;;;23.68;57.12;101763.03;5095979;22;99507;-88
2021/07/08 00:04:20;;;;;;;;;;;;;;;23.72;57.16;101767.22;5022893;28;98923;-86
2021/07/08 00:09:29;;;;;;;;;;;;;;;23.75;57.36;101761.59;5020112;28;97656;-87
2021/07/08 00:11:57;;;;;;;;;;;;;;;23.74;57.02;101760.72;5030922;27;96922;-86
2021/07/08 00:14:27;;;;;;;;;;;;;;;23.81;57.04;101751.19;5020175;28;98025;-85
2021/07/08 00:19:40;;;;;;;;;;;;;;;23.64;57.49;101750.72;5020634;28;96899;-89
2021/07/08 00:22:08;;;;;;;;;;;;;;;23.82;56.94;101755.63;5022346;28;100041;-88
2021/07/08 00:24:40;;;;;;;;;;;;;;;23.79;57.18;101752.28;5011973;28;97507;-87
2021/07/08 00:27:20;;;;;;;;;;;;;;;23.73;57.05;101747.34;5021540;28;96514;-88
2021/07/08 00:29:47;;;;;;;;;;;;;;;23.96;56.31;101740.22;5016026;28;96419;-87
2021/07/08 00:32:16;;;;;;;;;;;;;;;23.92;56.28;101741.41;5005335;28;96885;-87
2021/07/08 00:34:44;;;;;;;;;;;;;;;23.91;56.61;101753.19;5030231;28;99536;-89
2021/07/08 00:37:12;;;;;;;;;;;;;;;23.80;56.55;101752.19;5023080;28;96584;-87
2021/07/08 00:39:39;;;;;;;;;;;;;;;23.73;56.83;101747.34;5025207;28;96628;-86
2021/07/08 00:42:07;;;;;;;;;;;;;;;23.69;57.03;101749.44;5023491;28;101256;-90
2021/07/08 00:44:39;;;;;;;;;;;;;;;23.47;57.69;101748.38;5031889;28;100297;-89
2021/07/08 00:47:07;;;;;;;;;;;;;;;23.57;57.34;101739.53;5025371;28;96614;-88
2021/07/08 00:49:33;;;;;;;;;;;;;;;23.65;57.30;101738.97;5021052;28;96573;-87
2021/07/08 00:52:00;;;;;;;;;;;;;;;23.77;56.84;101735.34;5019502;28;96940;-87
2021/07/08 00:54:30;;;;;;;;;;;;;;;23.58;57.64;101726.91;5016166;28;98460;-88
2021/07/08 00:57:03;;;;;;;;;;;;;;;23.65;57.50;101730.88;5018242;28;97852;-88
2021/07/08 00:59:30;;;;;;;;;;;;;;;23.60;57.31;101733.91;5003635;28;96774;-88
2021/07/08 01:02:02;;;;;;;;;;;;;;;23.57;57.49;101727.88;5006718;28;100400;-87
2021/07/08 01:04:30;;;;;;;;;;;;;;;23.50;57.39;101724.75;5007001;28;97889;-87
2021/07/08 01:06:58;;;;;;;;;;;;;;;23.47;57.65;101732.19;5020018;22;98737;-87
2021/07/08 01:09:25;;;;;;;;;;;;;;;23.36;58.00;101733.88;5019848;28;96567;-87
2021/07/08 01:11:51;;;;;;;;;;;;;;;23.50;57.54;101732.84;5005556;28;100034;-88
2021/07/08 01:14:18;;;;;;;;;;;;;;;23.43;57.83;101726.19;5018183;28;99385;-87
2021/07/08 01:16:55;;;;;;;;;;;;;;;23.22;58.17;101734.00;4991550;28;96591;-88
2021/07/08 01:19:24;;;;;;;;;;;;;;;23.36;57.87;101730.31;5004382;28;96807;-87
2021/07/08 01:21:54;;;;;;;;;;;;;;;23.49;57.65;101738.38;4998029;28;100431;-87
2021/07/08 01:24:22;;;;;;;;;;;;;;;23.42;57.54;101736.13;5015186;28;98940;-89
2021/07/08 01:26:49;;;;;;;;;;;;;;;23.45;57.77;101735.88;5010589;28;96759;-87
2021/07/08 01:29:15;;;;;;;;;;;;;;;23.48;57.79;101747.44;5014125;28;96837;-88
2021/07/08 01:31:43;;;;;;;;;;;;;;;23.39;57.79;101739.03;5028591;27;99246;-86
2021/07/08 01:36:53;;;;;;;;;;;;;;;23.33;57.95;101736.78;5030058;27;96056;-81
2021/07/08 01:39:24;;;;;;;;;;;;;;;23.37;57.93;101732.88;5014969;28;96032;-85
2021/07/08 01:41:50;;;;;;;;;;;;;;;23.35;57.65;101734.84;5030875;27;96643;-82
2021/07/08 01:44:17;;;;;;;;;;;;;;;23.36;57.45;101738.41;5044404;27;96853;-84
2021/07/08 01:46:44;;;;;;;;;;;;;;;23.54;57.38;101747.00;5044566;27;95897;-84
2021/07/08 01:49:15;;;;;;;;;;;;;;;23.58;57.20;101745.78;5044269;27;96035;-86
2021/07/08 01:51:45;;;;;;;;;;;;;;;23.40;57.58;101743.44;5033877;28;99118;-88
2021/07/08 01:54:12;;;;;;;;;;;;;;;23.23;57.76;101749.22;5020776;28;99321;-87
2021/07/08 01:56:41;;;;;;;;;;;;;;;23.29;57.68;101746.09;5021872;28;96501;-86
2021/07/08 01:59:15;;;;;;;;;;;;;;;23.23;57.88;101735.75;5019957;28;96575;-87
2021/07/08 02:01:44;;;;;;;;;;;;;;;22.97;58.55;101739.47;5024462;28;96991;-87
2021/07/08 02:04:11;;;;;;;;;;;;;;;23.03;58.50;101737.19;5027684;27;100588;-86
2021/07/08 02:06:39;;;;;;;;;;;;;;;23.05;58.42;101739.75;5024670;28;96675;-87
2021/07/08 02:09:05;;;;;;;;;;;;;;;23.14;58.65;101740.94;5016396;28;96831;-87
2021/07/08 02:11:32;;;;;;;;;;;;;;;23.08;58.87;101739.53;5012091;28;99753;-88
2021/07/08 02:14:00;;;;;;;;;;;;;;;23.12;58.57;101746.44;5009182;28;100735;-88
2021/07/08 02:16:30;;;;;;;;;;;;;;;23.18;58.40;101745.13;5010294;28;96743;-89
2021/07/08 02:18:58;;;;;;;;;;;;;;;23.16;58.35;101745.25;5014294;28;96834;-89
2021/07/08 02:21:28;;;;;;;;;;;;;;;23.11;58.34;101747.38;4989855;28;99157;-89
2021/07/08 02:23:55;;;;;;;;;;;;;;;23.15;58.46;101745.34;4996382;28;98968;-89
2021/07/08 02:26:21;;;;;;;;;;;;;;;23.10;58.46;101743.00;5008586;28;96758;-89
2021/07/08 02:28:53;;;;;;;;;;;;;;;23.28;57.97;101754.28;5011485;28;96919;-89
2021/07/08 02:34:24;;;;;;;;;;;;;;;22.97;58.94;101756.47;5100889;27;96537;-89
2021/07/08 02:36:51;;;;;;;;;;;;;;;23.05;58.53;101764.88;5088367;27;96870;-90
2021/07/08 02:39:18;;;;;;;;;;;;;;;23.17;58.02;101757.72;5096979;27;100447;-87
2021/07/08 02:41:44;;;;;;;;;;;;;;;23.05;58.24;101764.00;5096911;27;98674;-87
2021/07/08 02:44:12;;;;;;;;;;;;;;;23.00;58.54;101771.56;5106170;27;96910;-88
2021/07/08 02:46:38;;;;;;;;;;;;;;;23.10;58.35;101777.19;5096740;27;97429;-88
2021/07/08 02:51:50;;;;;;;;;;;;;;;23.09;58.54;101770.06;5095859;27;98739;-88
2021/07/08 02:54:16;;;;;;;;;;;;;;;23.16;58.14;101774.91;5103743;27;96239;-87
2021/07/08 02:56:43;;;;;;;;;;;;;;;23.26;58.32;101769.69;5116161;27;96408;-84
2021/07/08 02:59:11;;;;;;;;;;;;;;;23.21;58.06;101771.88;5095898;27;98771;-85
2021/07/08 03:01:38;;;;;;;;;;;;;;;23.16;58.12;101774.91;5093693;27;98077;-85
2021/07/08 03:04:05;;;;;;;;;;;;;;;23.21;57.92;101763.78;5102348;27;95968;-85
2021/07/08 03:06:43;;;;;;;;;;;;;;;23.24;57.78;101760.84;5100048;27;95979;-86
2021/07/08 03:09:23;;;;;;;;;;;;;;;23.30;57.66;101768.50;5100414;27;99400;-84
2021/07/08 03:11:50;;;;;;;;;;;;;;;23.22;57.91;101770.91;5100349;27;100050;-83
2021/07/08 03:14:18;;;;;;;;;;;;;;;23.07;58.48;101775.56;5093356;27;95890;-85
2021/07/08 03:16:49;;;;;;;;;;;;;;;23.10;58.48;101769.09;5080406;27;97035;-84
2021/07/08 03:19:17;;;;;;;;;;;;;;;23.38;57.66;101769.66;5079750;27;96863;-84
2021/07/08 03:21:44;;;;;;;;;;;;;;;23.27;57.64;101771.41;5079737;27;99226;-83
2021/07/08 03:24:13;;;;;;;;;;;;;;;23.26;57.75;101769.69;5080304;27;96066;-83
2021/07/08 03:26:40;;;;;;;;;;;;;;;23.09;57.89;101770.91;5080642;27;97344;-83
2021/07/08 03:29:09;;;;;;;;;;;;;;;23.08;57.72;101769.19;5079392;27;97571;-85
2021/07/08 03:31:37;;;;;;;;;;;;;;;23.30;57.39;101763.97;5079796;27;97781;-85
2021/07/08 03:34:04;;;;;;;;;;;;;;;23.30;57.55;101761.25;5079954;27;95957;-87
2021/07/08 03:36:30;;;;;;;;;;;;;;;23.18;57.76;101775.63;5079772;27;96004;-84
2021/07/08 03:38:58;;;;;;;;;;;;;;;23.20;57.56;101773.69;5095489;27;99244;-85
2021/07/08 03:41:31;;;;;;;;;;;;;;;23.48;57.01;101777.13;5100086;27;99210;-86
2021/07/08 03:43:58;;;;;;;;;;;;;;;23.29;57.29;101781.13;5095356;27;96648;-87
2021/07/08 03:46:28;;;;;;;;;;;;;;;23.37;57.42;101785.94;5085918;27;96000;-88
2021/07/08 03:51:35;;;;;;;;;;;;;;;23.60;56.84;101784.31;5076484;27;98833;-89
2021/07/08 03:54:01;;;;;;;;;;;;;;;23.73;56.27;101787.81;5074820;27;96559;-88
2021/07/08 03:56:30;;;;;;;;;;;;;;;23.82;55.51;101793.41;5076231;27;96849;-88
2021/07/08 03:58:56;;;;;;;;;;;;;;;23.78;55.62;101796.44;5077135;27;99343;-86
2021/07/08 04:01:25;;;;;;;;;;;;;;;23.53;56.33;101792.00;5073298;27;98585;-87
2021/07/08 04:03:52;;;;;;;;;;;;;;;23.90;55.51;101800.03;5074171;27;96683;-88
2021/07/08 04:06:26;;;;;;;;;;;;;;;24.02;55.24;101791.91;5076268;27;96565;-86
2021/07/08 04:08:53;;;;;;;;;;;;;;;24.09;54.71;101789.63;5065938;27;98945;-87
2021/07/08 04:11:22;;;;;;;;;;;;;;;24.37;54.37;101782.97;5083539;27;100280;-87
2021/07/08 04:13:52;;;;;;;;;;;;;;;24.48;53.48;101788.44;5083168;27;96004;-88
2021/07/08 04:16:24;;;;;;;;;;;;;;;24.57;53.44;101796.66;5075139;27;96510;-89
2021/07/08 04:18:52;;;;;;;;;;;;;;;24.39;54.06;101790.00;5074804;27;100511;-87
2021/07/08 04:21:21;;;;;;;;;;;;;;;24.32;54.43;101788.75;5089174;27;99940;-87
2021/07/08 04:23:47;;;;;;;;;;;;;;;24.31;54.41;101788.84;5070130;27;98503;-86
2021/07/08 04:26:15;;;;;;;;;;;;;;;24.41;54.07;101787.19;5072785;27;96864;-87
2021/07/08 04:28:41;;;;;;;;;;;;;;;24.53;53.50;101788.94;5056724;27;97524;-86
2021/07/08 04:31:16;;;;;;;;;;;;;;;24.55;53.41;101786.94;5060454;27;100121;-86
2021/07/08 04:33:46;;;;;;;;;;;;;;;24.29;54.01;101791.66;5065117;27;96684;-87
2021/07/08 04:36:12;;;;;;;;;;;;;;;24.13;54.59;101791.09;5066023;27;96654;-87
2021/07/08 04:38:40;;;;;;;;;;;;;;;24.25;54.36;101783.94;5082800;27;101299;-87
2021/07/08 04:41:07;;;;;;;;;;;;;;;24.42;54.12;101786.19;5054324;27;99979;-88
2021/07/08 04:43:35;;;;;;;;;;;;;;;24.51;53.95;101786.34;5070385;27;96548;-87
2021/07/08 04:46:03;;;;;;;;;;;;;;;24.57;53.62;101785.84;5069235;27;96879;-86
2021/07/08 04:48:34;;;;;;;;;;;;;;;24.92;52.65;101784.97;5071044;27;97763;-85
2021/07/08 04:51:02;;;;;;;;;;;;;;;25.09;51.83;101775.50;5086360;27;99273;-87
2021/07/08 04:53:32;;;;;;;;;;;;;;;25.14;52.01;101784.13;5078059;27;96247;-85
2021/07/08 04:55:58;;;;;;;;;;;;;;;25.64;50.46;101775.47;5080026;27;96467;-87
2021/07/08 04:58:27;;;;;;;;;;;;;;;25.41;50.89;101768.34;5088735;27;99036;-87
2021/07/08 05:00:55;;;;;;;;;;;;;;;25.86;50.11;101771.84;5086556;27;98987;-86
2021/07/08 05:03:37;;;;;;;;;;;;;;;26.13;49.20;101768.63;5078284;27;96798;-85
2021/07/08 05:06:05;;;;;;;;;;;;;;;26.15;49.36;101778.38;5080102;27;97500;-85
2021/07/08 05:08:32;;;;;;;;;;;;;;;26.46;48.08;101779.34;5070045;27;99065;-86
2021/07/08 05:11:04;;;;;;;;;;;;;;;26.44;48.47;101769.63;5082767;27;98023;-88
2021/07/08 05:16:15;;;;;;;;;;;;;;;25.94;48.86;101768.47;5084920;27;95925;-81
2021/07/08 05:18:42;;;;;;;;;;;;;;;25.61;49.80;101762.19;5081560;27;96973;-82
2021/07/08 05:24:05;;;;;;;;;;;;;;;25.82;49.65;101767.66;5077897;27;95892;-83
2021/07/08 05:26:32;;;;;;;;;;;;;;;25.68;49.86;101763.41;5085388;27;95924;-86
2021/07/08 05:29:00;;;;;;;;;;;;;;;25.54;50.22;101769.06;5081621;27;100389;-86
2021/07/08 05:31:26;;;;;;;;;;;;;;;25.76;49.68;101762.75;5085706;27;98780;-85
2021/07/08 05:33:53;;;;;;;;;;;;;;;25.79;49.88;101768.78;5056059;27;96795;-86
2021/07/08 05:36:21;;;;;;;;;;;;;;;25.71;50.17;101765.88;5080465;27;96817;-87
2021/07/08 05:38:49;;;;;;;;;;;;;;;25.65;49.93;101768.22;5067899;27;99738;-86
2021/07/08 05:41:24;;;;;;;;;;;;;;;25.72;50.28;101775.72;5066521;27;98550;-87
2021/07/08 05:44:00;;;;;;;;;;;;;;;25.76;49.76;101769.03;5054877;27;96704;-90
2021/07/08 05:46:27;;;;;;;;;;;;;;;25.69;50.12;101777.78;5055750;27;96795;-87
2021/07/08 05:51:37;;;;;;;;;;;;;;;25.68;50.09;101786.91;5057811;27;98891;-88
2021/07/08 05:54:04;;;;;;;;;;;;;;;25.65;50.55;101776.34;5061025;27;96853;-86
2021/07/08 05:56:32;;;;;;;;;;;;;;;25.57;50.78;101781.47;5064840;27;96699;-88
2021/07/08 05:58:58;;;;;;;;;;;;;;;25.99;49.21;101787.94;5060616;27;99860;-89
2021/07/08 06:04:20;;;;;;;;;;;;;;;25.71;50.34;101795.63;5069303;27;96695;-90
2021/07/08 06:12:13;;;;;;;;;;;;;;;25.64;50.09;101791.72;4987102;28;98824;-89
2021/07/08 06:14:40;;;;;;;;;;;;;;;25.55;50.24;101799.69;4985821;28;97044;-87
2021/07/08 06:17:08;;;;;;;;;;;;;;;25.34;50.90;101805.84;4973937;28;97034;-88
2021/07/08 06:19:37;;;;;;;;;;;;;;;25.38;51.16;101815.47;4991815;28;97019;-89
2021/07/08 06:22:05;;;;;;;;;;;;;;;25.56;50.75;101807.69;4992397;28;98040;-89
2021/07/08 06:24:37;;;;;;;;;;;;;;;25.47;50.85;101797.59;4992500;28;96619;-88
2021/07/08 06:27:07;;;;;;;;;;;;;;;25.50;51.15;101786.53;4984650;28;96634;-89
2021/07/08 06:29:33;;;;;;;;;;;;;;;25.74;50.05;101792.66;4997608;28;99117;-88
2021/07/08 06:32:09;;;;;;;;;;;;;;;25.73;50.27;101793.66;4997107;28;99323;-89
2021/07/08 06:37:18;;;;;;;;;;;;;;;25.53;50.74;101791.72;4997195;28;97013;-88
2021/07/08 06:54:51;;;;;;;;;;;;;;;25.46;51.26;101800.44;5151423;22;98775;-86
2021/07/08 07:04:01;;;;;;;;;;;;;;;25.22;51.65;101820.38;5326173;22;99586;-88
2021/07/08 07:09:25;;;;;;;;;;;;;;;25.22;51.47;101819.50;5110092;27;96937;-89
2021/07/08 07:11:52;;;;;;;;;;;;;;;25.53;50.51;101807.94;5104541;27;100607;-86
2021/07/08 07:14:20;;;;;;;;;;;;;;;25.27;51.31;101822.72;5108372;27;99104;-87
2021/07/08 07:16:47;;;;;;;;;;;;;;;25.46;50.62;101814.84;5110228;27;96898;-88
2021/07/08 07:19:16;;;;;;;;;;;;;;;25.29;50.93;101810.78;5114904;27;97177;-88
2021/07/08 07:24:26;;;;;;;;;;;;;;;25.36;50.98;101816.56;5172471;22;99921;-88
2021/07/08 07:26:55;;;;;;;;;;;;;;;25.25;51.38;101814.72;5116383;27;99135;-87
2021/07/08 07:29:32;;;;;;;;;;;;;;;24.94;51.99;101808.19;5097415;27;96127;-85
2021/07/08 07:32:01;;;;;;;;;;;;;;;25.28;51.13;101813.59;5114343;27;99323;-89
2021/07/08 07:34:36;;;;;;;;;;;;;;;25.23;51.50;101821.22;5112226;27;99781;-88
2021/07/08 07:37:04;;;;;;;;;;;;;;;25.29;51.72;101821.59;5115591;27;96519;-88
2021/07/08 07:39:38;;;;;;;;;;;;;;;25.42;52.44;101826.88;5108116;27;97604;-89
2021/07/08 07:42:07;;;;;;;;;;;;;;;25.52;52.23;101824.31;5104022;27;97804;-89
2021/07/08 07:47:14;;;;;;;;;;;;;;;25.58;51.24;101811.16;5105691;27;96801;-86
2021/07/08 07:55:50;;;;;;;;;;;;;;;25.26;52.84;101802.06;5123510;22;97490;-89
2021/07/08 07:58:26;;;;;;;;;;;;;;;25.31;53.60;101808.81;5116646;22;100985;-88
2021/07/08 08:09:18;;;;;;;;;;;;;;;25.59;52.55;101804.78;5048380;27;97187;-89
2021/07/08 08:22:23;;;;;;;;;;;;;;;25.78;52.31;101813.09;5057442;27;97340;-89
2021/07/08 08:30:30;;;;;;;;;;;;;;;26.10;50.14;101814.97;5067806;22;96826;-86
2021/07/08 08:32:58;;;;;;;;;;;;;;;26.06;50.66;101821.59;5059578;27;95977;-88
2021/07/08 08:35:27;;;;;;;;;;;;;;;25.90;50.99;101822.03;5063038;27;98048;-86
2021/07/08 08:38:05;;;;;;;;;;;;;;;26.05;50.94;101819.91;5061764;27;98552;-89
2021/07/08 08:40:35;;;;;;;;;;;;;;;25.82;51.11;101819.09;5068485;27;95918;-88
2021/07/08 08:51:45;;;;;;;;;;;;;;;25.78;52.08;101828.47;5050427;27;96922;-89
2021/07/08 08:56:56;;;;;;;;;;;;;;;25.83;51.99;101836.22;5056076;27;97978;-89
2021/07/08 09:04:55;;;;;;;;;;;;;;;25.49;51.66;101830.81;5042209;28;98504;-88
2021/07/08 09:13:27;;;;;;;;;;;;;;;25.36;50.62;101816.56;5062741;27;97095;-92
2021/07/08 09:21:51;;;;;;;;;;;;;;;27.14;45.57;101807.75;5047862;28;98707;-89
2021/07/08 09:29:49;;;;;;;;;;;;;;;28.35;42.79;101809.34;5048168;27;98847;-88
2021/07/08 09:35:33;;;;;;;;;;;;;;;28.24;42.26;101797.75;5046466;27;96823;-89
2021/07/08 09:41:06;;;;;;;;;;;;;;;27.72;43.75;101797.09;5042324;28;99836;-88
2021/07/08 09:43:37;;;;;;;;;;;;;;;27.48;43.58;101793.88;5046224;27;97882;-89
2021/07/08 09:48:59;;;;;;;;;;;;;;;28.08;42.22;101796.44;5048661;27;96842;-90
2021/07/08 10:00:18;;;;;;;;;;;;;;;27.63;41.77;101804.25;5036283;28;97127;-90
2021/07/08 10:03:00;;;;;;;;;;;;;;;27.19;42.51;101804.59;5065053;27;97709;-89
2021/07/08 10:28:29;;;;;;;;;;;;;;;26.64;43.83;101846.53;5146047;27;96701;-89
2021/07/08 10:34:20;;;;;;;;;;;;;;;27.12;42.39;101855.84;5148398;27;99112;-89
2021/07/08 10:36:50;;;;;;;;;;;;;;;27.18;42.36;101852.59;5149224;27;96539;-88
2021/07/08 10:39:25;;;;;;;;;;;;;;;26.91;43.07;101846.91;5147726;27;96867;-88
2021/07/08 10:41:53;;;;;;;;;;;;;;;26.93;43.48;101850.31;5147698;27;99064;-91
2021/07/08 10:47:37;;;;;;;;;;;;;;;26.96;43.92;101834.66;5147192;27;96458;-89
2021/07/08 10:56:41;;;;;;;;;;;;;;;27.60;41.91;101845.22;5141511;27;101477;-90
2021/07/08 11:07:27;;;;;;;;;;;;;;;28.03;40.85;101838.59;5159419;27;98885;-91
2021/07/08 11:18:35;;;;;;;;;;;;;;;27.69;41.99;101835.41;5156015;27;98335;-91
2021/07/08 11:23:45;;;;;;;;;;;;;;;27.43;42.20;101835.00;5161271;27;96694;-89
2021/07/08 11:26:25;;;;;;;;;;;;;;;27.19;42.91;101837.16;5154992;27;101367;-89
2021/07/08 11:29:02;;;;;;;;;;;;;;;27.31;42.81;101836.94;5141392;27;101053;-88
2021/07/08 11:42:50;;;;;;;;;;;;;;;27.14;42.93;101815.88;5129392;27;96876;-90
2021/07/08 11:45:36;;;;;;;;;;;;;;;26.89;43.58;101819.03;5138289;27;96514;-88
2021/07/08 11:50:49;;;;;;;;;;;;;;;26.96;43.40;101812.09;5145080;27;98772;-90
2021/07/08 11:56:26;;;;;;;;;;;;;;;27.07;43.75;101809.28;5148732;27;95936;-86
2021/07/08 11:59:02;;;;;;;;;;;;;;;27.20;43.49;101815.34;5134821;27;96867;-88
2021/07/08 12:01:30;;;;;;;;;;;;;;;26.94;45.12;101806.78;5138994;27;99899;-85
2021/07/08 12:03:58;;;;;;;;;;;;;;;27.11;45.11;101809.88;5148225;27;95763;-84
2021/07/08 12:09:39;;;;;;;;;;;;;;;26.95;44.83;101804.94;5140314;27;96472;-85
2021/07/08 12:12:18;;;;;;;;;;;;;;;26.98;45.01;101806.53;5137707;27;98119;-88
2021/07/08 12:14:46;;;;;;;;;;;;;;;26.99;44.66;101811.78;5139426;27;96608;-87
2021/07/08 12:17:16;;;;;;;;;;;;;;;27.24;43.39;101800.50;5132851;27;96003;-87
2021/07/08 12:19:49;;;;;;;;;;;;;;;27.29;44.61;101798.25;5123813;27;98395;-89
2021/07/08 12:22:16;;;;;;;;;;;;;;;27.20;45.37;101796.34;5147590;27;98399;-87
2021/07/08 12:24:44;;;;;;;;;;;;;;;27.16;45.32;101792.19;5135556;27;96872;-88
2021/07/08 12:30:15;;;;;;;;;;;;;;;27.24;45.07;101792.34;5137923;27;99127;-86
2021/07/08 12:32:46;;;;;;;;;;;;;;;26.99;46.02;101784.69;5145269;27;99941;-85
2021/07/08 12:38:17;;;;;;;;;;;;;;;26.78;47.07;101771.13;5145894;27;96063;-87
2021/07/08 12:43:33;;;;;;;;;;;;;;;26.81;47.01;101768.16;5145433;27;98595;-86
2021/07/08 12:52:17;;;;;;;;;;;;;;;26.62;47.72;101769.88;5137522;27;99016;-87
2021/07/08 12:55:00;;;;;;;;;;;;;;;26.10;48.19;101760.78;5146421;27;98683;-86
2021/07/08 13:13:49;;;;;;;;;;;;;;;26.73;47.24;101767.09;5135803;27;98601;-88
2021/07/08 13:24:38;;;;;;;;;;;;;;;26.47;47.13;101778.34;5080304;27;98933;-90
2021/07/08 13:30:02;;;;;;;;;;;;;;;26.24;48.62;101771.34;5070850;27;96672;-89
2021/07/08 13:35:45;;;;;;;;;;;;;;;26.26;48.82;101780.19;5067827;27;97921;-87
2021/07/08 13:38:15;;;;;;;;;;;;;;;25.72;51.23;101777.56;5069650;27;99530;-89
2021/07/08 13:49:23;;;;;;;;;;;;;;;26.68;50.93;101781.06;5072039;27;97871;-87
2021/07/08 13:52:07;;;;;;;;;;;;;;;26.68;51.11;101781.06;5077538;27;96709;-88
2021/07/08 14:00:04;;;;;;;;;;;;;;;26.50;50.33;101759.13;5066967;27;98489;-89
2021/07/08 14:05:13;;;;;;;;;;;;;;;26.35;50.89;101760.44;5078901;27;96651;-86
2021/07/08 14:07:39;;;;;;;;;;;;;;;26.48;50.81;101758.41;5079896;27;99769;-88
2021/07/08 14:10:09;;;;;;;;;;;;;;;26.46;50.26;101757.66;5077646;27;97315;-87
2021/07/08 14:12:39;;;;;;;;;;;;;;;26.49;50.04;101753.84;5081281;27;96679;-87
2021/07/08 14:15:08;;;;;;;;;;;;;;;26.69;50.17;101750.25;5081953;27;96009;-86
2021/07/08 14:17:37;;;;;;;;;;;;;;;26.54;50.39;101751.56;5080054;27;97944;-86
2021/07/08 14:25:40;;;;;;;;;;;;;;;26.21;50.29;101739.06;5089468;27;96645;-86
2021/07/08 14:28:07;;;;;;;;;;;;;;;26.49;50.65;101740.28;5079128;27;97811;-85
2021/07/08 14:30:36;;;;;;;;;;;;;;;26.62;50.04;101729.22;5097774;27;96556;-88
2021/07/08 14:33:03;;;;;;;;;;;;;;;26.62;49.97;101734.66;5102088;27;96231;-87
2021/07/08 14:35:31;;;;;;;;;;;;;;;26.77;50.14;101749.59;5100023;27;96875;-87
2021/07/08 14:38:00;;;;;;;;;;;;;;;26.80;49.67;101758.28;5089174;27;99116;-86
2021/07/08 14:40:29;;;;;;;;;;;;;;;26.67;51.25;101773.06;5081320;27;98134;-87
2021/07/08 14:43:03;;;;;;;;;;;;;;;26.58;51.49;101785.56;5089984;27;97468;-87
2021/07/08 14:45:31;;;;;;;;;;;;;;;26.33;53.11;101797.63;5075366;27;96815;-89
2021/07/08 14:47:58;;;;;;;;;;;;;;;26.30;54.40;101803.34;5098612;27;99647;-85
2021/07/08 14:53:11;;;;;;;;;;;;;;;26.18;52.76;101793.50;5094445;27;95990;-87
2021/07/08 14:55:49;;;;;;;;;;;;;;;26.36;52.38;101773.00;5097584;27;96622;-87
2021/07/08 14:58:16;;;;;;;;;;;;;;;26.01;54.52;101748.00;5100397;27;99467;-87
2021/07/08 15:11:11;;;;;;;;;;;;;;;26.13;53.99;101734.28;5031827;22;97235;-87
2021/07/08 15:19:01;;;;;;;;;;;;;;;26.26;51.27;101742.25;4984104;28;98634;-85
2021/07/08 15:21:29;;;;;;;;;;;;;;;26.23;51.67;101741.63;4967377;28;98246;-87
2021/07/08 15:24:01;;;;;;;;;;;;;;;25.95;53.18;101718.75;4984683;28;96934;-87
2021/07/08 15:26:43;;;;;;;;;;;;;;;25.84;53.20;101719.66;4991713;28;96021;-87
2021/07/08 15:34:31;;;;;;;;;;;;;;;26.50;51.78;101731.16;5580272;22;99849;-88
2021/07/08 15:39:48;;;;;;;;;;;;;;;26.13;51.94;101720.75;5022944;28;98916;-85
2021/07/08 15:42:18;;;;;;;;;;;;;;;26.36;51.05;101723.38;5020103;28;98950;-87
2021/07/08 15:44:46;;;;;;;;;;;;;;;26.39;50.01;101713.13;5004200;28;97064;-88
2021/07/08 15:49:55;;;;;;;;;;;;;;;26.50;50.71;101710.34;5004829;28;98612;-90
2021/07/08 15:52:26;;;;;;;;;;;;;;;26.55;50.68;101709.94;5014767;28;99966;-89
2021/07/08 15:55:02;;;;;;;;;;;;;;;26.60;50.52;101710.38;4998305;28;96833;-91
2021/07/08 16:00:14;;;;;;;;;;;;;;;25.96;52.06;101713.22;5001926;28;99879;-92
2021/07/08 16:08:23;;;;;;;;;;;;;;;26.06;52.18;101691.59;5014297;28;96545;-93
2021/07/08 16:10:56;;;;;;;;;;;;;;;26.11;51.22;101678.56;5015173;28;99539;-93
2021/07/08 16:19:04;;;;;;;;;;;;;;;26.11;52.02;101667.72;5031493;28;96769;-88
2021/07/08 16:21:33;;;;;;;;;;;;;;;25.73;52.87;101658.28;5018388;28;99419;-89
2021/07/08 16:27:08;;;;;;;;;;;;;;;26.17;52.07;101622.00;5017915;28;96058;-92
2021/07/08 16:29:36;;;;;;;;;;;;;;;26.42;50.20;101628.00;5007556;28;96626;-90
2021/07/08 16:34:54;;;;;;;;;;;;;;;27.05;48.65;101640.38;5024452;28;96392;-88
2021/07/08 16:37:30;;;;;;;;;;;;;;;27.11;48.20;101628.13;5002989;28;95944;-92
2021/07/08 16:42:53;;;;;;;;;;;;;;;27.53;46.92;101612.47;5119463;22;98723;-93
2021/07/08 16:45:22;;;;;;;;;;;;;;;27.01;47.41;101619.97;4979007;28;98453;-93
2021/07/08 16:53:58;;;;;;;;;;;;;;;26.09;50.41;101637.19;5104021;22;97264;-91
2021/07/08 17:01:58;;;;;;;;;;;;;;;26.57;48.44;101673.59;5294377;22;98043;-87
2021/07/08 17:07:34;;;;;;;;;;;;;;;27.17;46.50;101655.56;5046570;22;98780;-91
2021/07/08 19:00:53;;;;;;;;;;;;;;;25.62;52.01;101623.16;5896670;23;99597;-93
2021/07/08 19:03:24;;;;;;;;;;;;;;;25.71;52.31;101621.53;4922873;28;98932;-93
2021/07/08 19:05:51;;;;;;;;;;;;;;;25.45;52.49;101612.03;4922521;28;96912;-91
2021/07/08 19:08:19;;;;;;;;;;;;;;;25.49;53.20;101600.81;4933997;28;95957;-94
2021/07/08 20:02:59;;;;;;;;;;;;;;;25.19;55.10;101622.34;5283630;22;98347;-91
2021/07/08 20:33:59;;;;;;;;;;;;;;;25.05;54.83;101628.88;5261662;22;99985;-95
2021/07/08 21:36:59;;;;;;;;;;;;;;;23.97;59.65;101591.63;5503731;23;99640;-86
